createdAt,value
2018-12-10T00:01:05.143Z,0.70
2018-12-10T00:03:34.274Z,0.98
2018-12-10T00:06:00.159Z,1.40
2018-12-10T00:08:27.632Z,1.40
2018-12-10T00:10:53.565Z,1.25
2018-12-10T00:13:24.075Z,1.43
2018-12-10T00:15:49.980Z,1.10
2018-12-10T00:18:15.876Z,1.60
2018-12-10T00:20:41.823Z,1.40
2018-12-10T00:23:07.705Z,1.23
2018-12-10T00:25:33.640Z,1.30
2018-12-10T00:27:59.549Z,1.03
2018-12-10T00:30:29.740Z,1.70
2018-12-10T00:32:55.679Z,1.30
2018-12-10T00:35:22.731Z,1.50
2018-12-10T00:37:48.623Z,1.30
2018-12-10T00:40:17.705Z,1.50
2018-12-10T00:42:43.624Z,1.70
2018-12-10T00:45:14.844Z,1.60
2018-12-10T00:47:40.726Z,1.40
2018-12-10T00:50:06.844Z,1.33
2018-12-10T00:52:32.954Z,1.87
2018-12-10T00:54:58.828Z,1.70
2018-12-10T00:57:24.997Z,1.47
2018-12-10T00:59:50.917Z,1.82
2018-12-10T01:02:20.464Z,1.70
2018-12-10T01:04:46.392Z,1.40
2018-12-10T01:07:14.270Z,1.40
2018-12-10T01:09:40.197Z,1.70
2018-12-10T01:12:10.186Z,1.53
2018-12-10T01:14:36.065Z,1.25
2018-12-10T01:17:03.824Z,1.77
2018-12-10T01:19:29.845Z,1.42
2018-12-10T01:21:57.556Z,1.42
2018-12-10T01:24:23.534Z,1.77
2018-12-10T01:26:53.410Z,1.30
2018-12-10T01:29:19.325Z,1.98
2018-12-10T01:31:45.212Z,1.50
2018-12-10T01:34:11.184Z,1.23
2018-12-10T01:36:37.109Z,1.50
2018-12-10T01:39:04.707Z,2.53
2018-12-10T01:41:30.619Z,1.42
2018-12-10T01:43:59.943Z,1.80
2018-12-10T01:46:25.834Z,1.35
2018-12-10T01:48:54.874Z,1.73
2018-12-10T01:51:20.784Z,1.65
2018-12-10T01:53:48.636Z,1.60
2018-12-10T01:56:14.530Z,2.27
2018-12-10T01:58:42.867Z,1.50
2018-12-10T02:01:08.750Z,1.82
2018-12-10T02:03:37.498Z,1.27
2018-12-10T02:06:03.425Z,1.15
2018-12-10T02:08:29.290Z,1.10
2018-12-10T02:10:55.203Z,1.20
2018-12-10T02:13:21.057Z,1.33
2018-12-10T02:15:49.310Z,1.50
2018-12-10T02:18:15.182Z,1.40
2018-12-10T02:20:44.239Z,2.07
2018-12-10T02:23:10.199Z,1.90
2018-12-10T02:25:39.989Z,1.57
2018-12-10T02:28:05.947Z,1.55
2018-12-10T02:30:33.768Z,1.60
2018-12-10T02:32:59.635Z,1.22
2018-12-10T02:35:29.191Z,2.20
2018-12-10T02:37:55.164Z,1.35
2018-12-10T02:40:24.191Z,1.53
2018-12-10T02:42:50.086Z,1.10
2018-12-10T02:45:16.048Z,1.27
2018-12-10T02:47:41.927Z,1.20
2018-12-10T02:50:07.852Z,1.93
2018-12-10T02:52:34.912Z,1.10
2018-12-10T02:55:00.788Z,1.10
2018-12-10T02:57:30.002Z,1.10
2018-12-10T02:59:55.927Z,1.77
2018-12-10T03:02:25.343Z,1.72
2018-12-10T03:04:51.236Z,1.25
2018-12-10T03:07:20.447Z,1.17
2018-12-10T03:09:46.377Z,1.80
2018-12-10T03:12:14.343Z,1.20
2018-12-10T03:14:40.195Z,1.50
2018-12-10T03:17:09.274Z,1.67
2018-12-10T03:19:35.144Z,1.30
2018-12-10T03:22:01.078Z,1.13
2018-12-10T03:24:26.976Z,1.10
2018-12-10T03:26:52.864Z,1.63
2018-12-10T03:29:19.973Z,1.13
2018-12-10T03:31:45.894Z,1.50
2018-12-10T03:34:16.358Z,1.07
2018-12-10T03:36:42.283Z,0.95
2018-12-10T03:39:11.193Z,1.10
2018-12-10T03:41:37.121Z,1.20
2018-12-10T03:44:04.968Z,1.70
2018-12-10T03:46:30.968Z,1.35
2018-12-10T03:49:00.565Z,2.80
2018-12-10T03:51:26.673Z,1.02
2018-12-10T03:53:54.308Z,2.07
2018-12-10T03:56:20.177Z,2.00
2018-12-10T03:58:46.060Z,1.10
2018-12-10T04:01:11.945Z,1.80
2018-12-10T04:03:37.812Z,1.23
2018-12-10T04:06:06.915Z,1.20
2018-12-10T04:08:32.834Z,1.40
2018-12-10T04:11:00.671Z,1.73
2018-12-10T04:13:26.555Z,1.32
2018-12-10T04:15:56.286Z,1.93
2018-12-10T04:18:22.196Z,1.00
2018-12-10T04:20:49.876Z,1.43
2018-12-10T04:23:15.889Z,1.30
2018-12-10T04:25:45.746Z,1.50
2018-12-10T04:28:13.608Z,1.30
2018-12-10T04:30:39.484Z,1.72
2018-12-10T04:33:05.414Z,1.23
2018-12-10T04:35:31.335Z,1.80
2018-12-10T04:37:57.215Z,1.63
2018-12-10T04:40:23.103Z,2.13
2018-12-10T04:42:52.456Z,1.47
2018-12-10T04:45:18.365Z,1.80
2018-12-10T04:47:46.209Z,1.87
2018-12-10T04:50:12.112Z,1.77
2018-12-10T04:52:40.011Z,1.30
2018-12-10T04:55:06.008Z,1.40
2018-12-10T04:57:35.660Z,1.77
2018-12-10T05:00:01.830Z,1.65
2018-12-10T05:02:30.765Z,1.00
2018-12-10T05:04:56.670Z,1.40
2018-12-10T05:07:24.593Z,0.80
2018-12-10T05:09:50.483Z,0.80
2018-12-10T05:12:16.334Z,0.67
2018-12-10T05:14:42.217Z,1.17
2018-12-10T05:17:08.124Z,1.17
2018-12-10T05:19:37.325Z,1.30
2018-12-10T05:22:03.331Z,0.85
2018-12-10T05:24:30.951Z,1.00
2018-12-10T05:26:56.829Z,0.70
2018-12-10T05:29:26.609Z,0.93
2018-12-10T05:31:52.526Z,0.60
2018-12-10T05:34:20.798Z,0.80
2018-12-10T05:36:46.699Z,0.72
2018-12-10T05:39:16.376Z,1.17
2018-12-10T05:41:42.251Z,0.93
2018-12-10T05:44:10.096Z,1.00
2018-12-10T05:46:35.992Z,1.60
2018-12-10T05:49:02.003Z,1.30
2018-12-10T05:51:27.906Z,1.23
2018-12-10T05:53:53.780Z,0.70
2018-12-10T05:56:22.915Z,1.33
2018-12-10T05:58:48.775Z,1.80
2018-12-10T06:01:17.855Z,1.90
2018-12-10T06:03:43.747Z,1.25
2018-12-10T06:06:10.770Z,1.63
2018-12-10T06:08:36.778Z,2.90
2018-12-10T06:11:05.002Z,1.10
2018-12-10T06:13:30.882Z,2.35
2018-12-10T06:16:01.326Z,1.83
2018-12-10T06:18:27.292Z,1.60
2018-12-10T06:20:54.819Z,2.03
2018-12-10T06:23:20.702Z,2.17
2018-12-10T06:25:46.587Z,2.60
2018-12-10T06:28:12.499Z,3.20
2018-12-10T06:30:38.357Z,2.93
2018-12-10T06:33:08.348Z,2.43
2018-12-10T06:35:34.209Z,2.62
2018-12-10T06:38:01.236Z,2.90
2018-12-10T06:40:27.132Z,3.47
2018-12-10T06:42:56.097Z,3.20
2018-12-10T06:45:22.112Z,2.65
2018-12-10T06:47:51.756Z,4.70
2018-12-10T06:50:17.974Z,3.40
2018-12-10T06:52:45.751Z,3.67
2018-12-10T06:55:11.663Z,3.25
2018-12-10T06:57:40.016Z,3.10
2018-12-10T07:00:07.207Z,2.90
2018-12-10T07:02:33.113Z,3.55
2018-12-10T07:04:59.637Z,4.00
2018-12-10T07:07:25.598Z,4.37
2018-12-10T07:09:52.587Z,3.50
2018-12-10T07:12:18.483Z,2.55
2018-12-10T07:14:48.486Z,3.23
2018-12-10T07:17:14.474Z,3.20
2018-12-10T07:19:41.177Z,3.47
2018-12-10T07:22:07.062Z,4.17
2018-12-10T07:24:35.902Z,4.03
2018-12-10T07:27:01.786Z,3.40
2018-12-10T07:29:31.168Z,3.60
2018-12-10T07:31:57.058Z,3.37
2018-12-10T07:34:26.502Z,4.47
2018-12-10T07:36:52.381Z,4.83
2018-12-10T07:39:18.264Z,3.40
2018-12-10T07:41:44.169Z,3.20
2018-12-10T07:44:10.031Z,8.03
2018-12-10T07:46:37.354Z,6.80
2018-12-10T07:49:03.760Z,3.10
2018-12-10T07:51:33.027Z,3.30
2018-12-10T07:53:58.900Z,4.78
2018-12-10T07:56:29.099Z,2.63
2018-12-10T07:58:55.309Z,2.77
2018-12-10T08:01:21.235Z,3.00
2018-12-10T08:03:47.074Z,1.93
2018-12-10T08:06:16.072Z,2.17
2018-12-10T08:08:41.944Z,2.10
2018-12-10T08:11:10.348Z,2.80
2018-12-10T08:13:36.248Z,2.40
2018-12-10T08:16:02.178Z,2.77
2018-12-10T08:18:28.082Z,1.83
2018-12-10T08:21:01.924Z,1.70
2018-12-10T08:23:23.343Z,2.00
2018-12-10T08:25:49.370Z,1.80
2018-12-10T08:28:19.054Z,1.70
2018-12-10T08:30:45.029Z,1.55
2018-12-10T08:33:12.736Z,2.13
2018-12-10T08:35:40.883Z,1.60
2018-12-10T08:38:06.603Z,1.15
2018-12-10T08:40:32.503Z,1.50
2018-12-10T08:43:01.224Z,2.23
2018-12-10T08:45:33.265Z,2.30
2018-12-10T08:47:59.511Z,1.90
2018-12-10T08:50:25.416Z,2.40
2018-12-10T08:52:51.267Z,2.23
2018-12-10T08:55:17.158Z,2.37
2018-12-10T08:57:43.048Z,1.77
2018-12-10T09:00:09.089Z,3.00
2018-12-10T09:02:34.963Z,2.70
2018-12-10T09:05:03.311Z,1.93
2018-12-10T09:07:29.328Z,2.50
2018-12-10T09:09:58.525Z,2.23
2018-12-10T09:12:24.436Z,2.20
2018-12-10T09:14:52.022Z,2.33
2018-12-10T09:17:17.938Z,2.95
2018-12-10T09:19:47.494Z,1.77
2018-12-10T09:22:13.384Z,2.35
2018-12-10T09:24:42.383Z,2.53
2018-12-10T09:27:08.249Z,1.52
2018-12-10T09:29:34.200Z,1.70
2018-12-10T09:32:00.293Z,1.87
2018-12-10T09:34:26.196Z,1.60
2018-12-10T09:36:53.327Z,2.80
2018-12-10T09:39:19.211Z,1.20
2018-12-10T09:41:49.010Z,7.30
2018-12-10T09:44:14.901Z,3.37
2018-12-10T09:46:43.994Z,1.30
2018-12-10T09:49:11.168Z,1.05
2018-12-10T09:51:37.130Z,2.10
2018-12-10T09:54:03.012Z,1.40
2018-12-10T09:56:33.211Z,1.60
2018-12-10T09:58:59.139Z,1.60
2018-12-10T10:01:28.479Z,2.10
2018-12-10T10:03:54.363Z,1.90
2018-12-10T10:06:20.380Z,1.83
2018-12-10T10:08:46.314Z,1.22
2018-12-10T10:11:12.287Z,1.70
2018-12-10T10:13:38.516Z,1.87
2018-12-10T10:16:04.426Z,1.77
2018-12-10T10:18:34.047Z,1.40
2018-12-10T10:20:59.974Z,1.15
2018-12-10T10:23:29.042Z,1.50
2018-12-10T10:25:54.957Z,1.85
2018-12-10T10:28:24.006Z,1.40
2018-12-10T10:30:50.053Z,1.65
2018-12-10T10:33:17.756Z,1.83
2018-12-10T10:35:43.680Z,1.15
2018-12-10T10:38:15.192Z,1.73
2018-12-10T10:40:41.202Z,1.75
2018-12-10T10:43:07.084Z,2.47
2018-12-10T10:45:34.908Z,1.57
2018-12-10T10:48:00.935Z,1.40
2018-12-10T10:50:26.800Z,1.57
2018-12-10T10:52:52.705Z,1.97
2018-12-10T10:55:18.573Z,1.50
2018-12-10T10:57:44.496Z,2.00
2018-12-10T11:00:19.668Z,2.30
2018-12-10T11:02:53.214Z,1.67
2018-12-10T11:05:19.091Z,1.57
2018-12-10T11:07:44.980Z,2.90
2018-12-10T11:10:10.855Z,2.07
2018-12-10T11:12:36.749Z,1.70
2018-12-10T11:15:03.468Z,2.07
2018-12-10T11:17:29.332Z,1.90
2018-12-10T11:19:55.234Z,1.57
2018-12-10T11:22:21.140Z,1.97
2018-12-10T11:24:47.078Z,2.10
2018-12-10T11:27:13.029Z,1.75
2018-12-10T11:29:38.949Z,1.90
2018-12-10T11:32:04.823Z,1.20
2018-12-10T11:34:30.706Z,1.50
2018-12-10T11:37:00.076Z,1.50
2018-12-10T11:39:25.959Z,1.65
2018-12-10T11:41:54.850Z,2.70
2018-12-10T11:44:20.791Z,1.40
2018-12-10T11:46:48.477Z,2.00
2018-12-10T11:49:14.355Z,1.60
2018-12-10T11:51:43.997Z,1.60
2018-12-10T11:54:09.843Z,2.30
2018-12-10T11:56:35.718Z,1.67
2018-12-10T11:59:01.573Z,2.10
2018-12-10T12:01:27.495Z,1.40
2018-12-10T12:03:54.624Z,1.20
2018-12-10T12:06:20.500Z,1.20
2018-12-10T12:08:48.955Z,1.27
2018-12-10T12:11:14.870Z,1.62
2018-12-10T12:13:44.567Z,1.57
2018-12-10T12:16:10.571Z,1.30
2018-12-10T12:18:39.724Z,1.20
2018-12-10T12:21:06.024Z,0.93
2018-12-10T12:23:33.400Z,1.00
2018-12-10T12:25:59.921Z,1.25
2018-12-10T12:28:29.247Z,1.27
2018-12-10T12:30:55.132Z,1.27
2018-12-10T12:33:21.027Z,1.23
2018-12-10T12:35:47.030Z,1.27
2018-12-10T12:38:12.915Z,1.10
2018-12-10T12:40:40.215Z,1.23
2018-12-10T12:43:08.541Z,1.00
2018-12-10T12:45:34.878Z,1.30
2018-12-10T12:48:00.836Z,3.60
2018-12-10T12:50:30.390Z,1.20
2018-12-10T12:52:56.284Z,2.17
2018-12-10T12:55:25.220Z,1.20
2018-12-10T12:57:51.079Z,1.52
2018-12-10T13:00:27.062Z,1.50
2018-12-10T13:02:48.140Z,1.35
2018-12-10T13:05:14.143Z,2.20
2018-12-10T13:07:40.006Z,1.40
2018-12-10T13:10:06.153Z,1.10
2018-12-10T13:12:32.044Z,0.93
2018-12-10T13:14:57.973Z,1.00
2018-12-10T13:17:25.591Z,1.60
2018-12-10T13:19:51.448Z,1.30
2018-12-10T13:22:20.471Z,1.10
2018-12-10T13:24:46.374Z,1.35
2018-12-10T13:27:16.241Z,1.37
2018-12-10T13:29:42.152Z,0.90
2018-12-10T13:32:09.084Z,3.70
2018-12-10T13:34:34.947Z,1.45
2018-12-10T13:37:04.784Z,1.63
2018-12-10T13:39:30.683Z,2.10
2018-12-10T13:41:58.477Z,1.27
2018-12-10T13:44:24.322Z,1.10
2018-12-10T13:46:50.333Z,1.17
2018-12-10T13:49:16.199Z,0.80
2018-12-10T13:51:42.080Z,1.10
2018-12-10T13:54:10.451Z,1.50
2018-12-10T13:56:36.843Z,1.30
2018-12-10T13:59:05.217Z,1.35
2018-12-10T14:01:31.139Z,1.40
2018-12-10T14:04:02.880Z,1.33
2018-12-10T14:06:28.809Z,1.47
2018-12-10T14:08:54.724Z,1.77
2018-12-10T14:11:20.672Z,0.90
2018-12-10T14:13:50.567Z,1.82
2018-12-10T14:16:16.475Z,1.32
2018-12-10T14:18:44.296Z,1.67
2018-12-10T14:21:11.119Z,1.00
2018-12-10T14:23:37.006Z,1.50
2018-12-10T14:26:02.955Z,1.10
2018-12-10T14:28:29.136Z,1.10
2018-12-10T14:30:57.028Z,1.20
2018-12-10T14:33:23.019Z,1.80
2018-12-10T14:35:50.900Z,1.15
2018-12-10T14:38:16.828Z,1.25
2018-12-10T14:40:46.796Z,1.40
2018-12-10T14:43:12.704Z,1.67
2018-12-10T14:45:40.555Z,1.67
2018-12-10T14:48:06.433Z,1.15
2018-12-10T14:50:36.125Z,1.20
2018-12-10T14:53:02.023Z,1.50
2018-12-10T14:55:29.901Z,1.60
2018-12-10T14:57:55.851Z,1.52
2018-12-10T15:00:21.821Z,1.60
2018-12-10T15:02:47.721Z,1.20
2018-12-10T15:05:13.599Z,1.73
2018-12-10T15:07:42.757Z,1.57
2018-12-10T15:10:08.778Z,2.12
2018-12-10T15:12:36.459Z,1.10
2018-12-10T15:15:03.880Z,1.30
2018-12-10T15:17:30.923Z,2.17
2018-12-10T15:19:56.983Z,1.62
2018-12-10T15:22:26.733Z,2.45
2018-12-10T15:24:54.893Z,2.17
2018-12-10T15:27:21.016Z,1.52
2018-12-10T15:29:46.908Z,2.33
2018-12-10T15:32:14.334Z,1.67
2018-12-10T15:34:40.256Z,1.50
2018-12-10T15:37:06.161Z,1.97
2018-12-10T15:39:32.050Z,1.53
2018-12-10T15:41:57.945Z,1.40
2018-12-10T15:44:26.676Z,6.57
2018-12-10T15:46:52.581Z,2.72
2018-12-10T15:49:21.864Z,3.07
2018-12-10T15:51:47.918Z,4.53
2018-12-10T15:54:17.590Z,2.90
2018-12-10T15:56:43.461Z,1.85
2018-12-10T15:59:10.394Z,2.10
2018-12-10T16:01:36.274Z,1.40
2018-12-10T16:04:06.086Z,2.50
2018-12-10T16:06:31.998Z,1.85
2018-12-10T16:09:00.984Z,1.93
2018-12-10T16:11:26.879Z,2.20
2018-12-10T16:13:52.723Z,1.67
2018-12-10T16:16:18.631Z,1.83
2018-12-10T16:18:44.509Z,1.40
2018-12-10T16:21:11.630Z,1.40
2018-12-10T16:23:37.505Z,1.55
2018-12-10T16:26:07.244Z,1.80
2018-12-10T16:28:33.195Z,1.50
2018-12-10T16:31:02.391Z,1.30
2018-12-10T16:33:28.423Z,1.60
2018-12-10T16:35:56.327Z,1.97
2018-12-10T16:38:22.234Z,1.17
2018-12-10T16:40:51.807Z,1.70
2018-12-10T16:43:17.814Z,1.82
2018-12-10T16:45:45.622Z,1.45
2018-12-10T16:48:11.588Z,1.10
2018-12-10T16:50:37.504Z,1.50
2018-12-10T16:53:03.397Z,1.43
2018-12-10T16:55:29.340Z,1.20
2018-12-10T16:57:58.432Z,1.27
2018-12-10T17:00:24.383Z,1.20
2018-12-10T17:02:52.312Z,1.30
2018-12-10T17:05:20.216Z,1.47
2018-12-10T17:07:46.157Z,1.40
2018-12-10T17:10:12.041Z,1.43
2018-12-10T17:12:41.767Z,1.20
2018-12-10T17:15:07.783Z,1.65
2018-12-10T17:17:35.635Z,1.70
2018-12-10T17:20:02.289Z,1.70
2018-12-10T17:22:31.428Z,1.70
2018-12-10T17:24:57.313Z,1.77
2018-12-10T17:27:23.191Z,1.60
2018-12-10T17:29:49.106Z,1.33
2018-12-10T17:32:15.012Z,1.50
2018-12-10T17:34:42.383Z,1.43
2018-12-10T17:37:08.282Z,1.27
2018-12-10T17:39:42.251Z,2.27
2018-12-10T17:42:16.093Z,1.80
2018-12-10T17:44:42.150Z,1.60
2018-12-10T17:47:08.826Z,1.57
2018-12-10T17:49:35.278Z,1.30
2018-12-10T17:52:01.642Z,2.02
2018-12-10T17:54:27.509Z,1.55
2018-12-10T17:56:53.444Z,2.00
2018-12-10T17:59:19.376Z,1.87
2018-12-10T18:01:46.416Z,1.62
2018-12-10T18:04:12.304Z,1.50
2018-12-10T18:06:38.212Z,1.63
2018-12-10T18:09:05.390Z,1.83
2018-12-10T18:11:31.305Z,1.20
2018-12-10T18:13:57.163Z,2.23
2018-12-10T18:16:23.061Z,1.63
2018-12-10T18:18:48.981Z,1.80
2018-12-10T18:21:17.992Z,1.40
2018-12-10T18:23:43.925Z,2.10
2018-12-10T18:26:11.876Z,1.90
2018-12-10T18:28:37.778Z,1.82
2018-12-10T18:31:08.946Z,1.97
2018-12-10T18:33:34.882Z,1.85
2018-12-10T18:36:01.179Z,2.20
2018-12-10T18:38:27.104Z,2.10
2018-12-10T18:40:52.989Z,2.10
2018-12-10T18:43:18.898Z,2.20
2018-12-10T18:45:44.776Z,2.40
2018-12-10T18:48:13.946Z,2.13
2018-12-10T18:50:39.862Z,2.85
2018-12-10T18:53:07.656Z,2.10
2018-12-10T18:55:33.508Z,2.62
2018-12-10T18:58:02.748Z,1.77
2018-12-10T19:00:28.647Z,2.30
2018-12-10T19:02:58.216Z,2.60
2018-12-10T19:05:26.141Z,2.60
2018-12-10T19:07:52.022Z,1.95
2018-12-10T19:10:17.917Z,1.50
2018-12-10T19:12:46.849Z,1.07
2018-12-10T19:15:13.084Z,3.33
2018-12-10T19:17:38.954Z,2.42
2018-12-10T19:20:05.604Z,1.50
2018-12-10T19:22:31.767Z,1.30
2018-12-10T19:24:58.887Z,1.90
2018-12-10T19:27:24.781Z,1.75
2018-12-10T19:29:53.768Z,1.37
2018-12-10T19:32:19.794Z,1.85
2018-12-10T19:34:47.470Z,1.30
2018-12-10T19:37:13.349Z,1.60
2018-12-10T19:39:41.558Z,1.00
2018-12-10T19:42:07.460Z,1.37
2018-12-10T19:44:33.596Z,1.30
2018-12-10T19:46:59.487Z,1.70
2018-12-10T19:49:25.510Z,1.10
2018-12-10T19:51:54.109Z,0.98
2018-12-10T19:54:20.004Z,0.90
2018-12-10T19:56:52.291Z,1.30
2018-12-10T19:59:18.718Z,1.05
2018-12-10T20:01:44.621Z,1.30
2018-12-10T20:04:10.567Z,1.37
2018-12-10T20:06:45.497Z,1.57
2018-12-10T20:09:11.589Z,1.80
2018-12-10T20:11:37.515Z,1.45
2018-12-10T20:14:03.524Z,1.80
2018-12-10T20:16:29.469Z,1.27
2018-12-10T20:18:55.375Z,1.07
2018-12-10T20:21:22.484Z,1.30
2018-12-10T20:23:54.264Z,1.85
2018-12-10T20:26:20.835Z,2.53
2018-12-10T20:28:46.720Z,3.20
2018-12-10T20:31:12.716Z,3.33
2018-12-10T20:33:38.645Z,3.27
2018-12-10T20:36:05.934Z,3.50
2018-12-10T20:38:31.987Z,3.37
2018-12-10T20:40:58.091Z,3.60
2018-12-10T20:43:23.996Z,3.60
2018-12-10T20:45:49.888Z,3.90
2018-12-10T20:48:19.675Z,4.50
2018-12-10T20:50:45.652Z,4.85
2018-12-10T20:53:13.407Z,4.25
2018-12-10T20:55:39.364Z,4.70
2018-12-10T20:58:09.081Z,4.70
2018-12-10T21:00:35.004Z,4.87
2018-12-10T21:03:02.742Z,5.47
2018-12-10T21:05:28.610Z,5.10
2018-12-10T21:07:54.521Z,4.80
2018-12-10T21:10:20.455Z,4.47
2018-12-10T21:12:46.350Z,4.00
2018-12-10T21:15:15.352Z,4.37
2018-12-10T21:17:41.229Z,4.67
2018-12-10T21:20:09.654Z,4.70
2018-12-10T21:22:35.591Z,5.30
2018-12-10T21:25:04.945Z,5.57
2018-12-10T21:27:30.810Z,4.28
2018-12-10T21:29:58.458Z,4.20
2018-12-10T21:32:24.321Z,5.05
2018-12-10T21:34:53.214Z,5.70
2018-12-10T21:37:19.082Z,5.28
2018-12-10T21:39:47.993Z,5.10
2018-12-10T21:42:13.897Z,4.70
2018-12-10T21:44:39.796Z,5.87
2018-12-10T21:47:05.706Z,6.07
2018-12-10T21:49:31.595Z,5.70
2018-12-10T21:52:01.255Z,6.80
2018-12-10T21:54:27.214Z,6.47
2018-12-10T21:56:54.245Z,6.30
2018-12-10T21:59:20.163Z,5.53
2018-12-10T22:01:49.865Z,6.57
2018-12-10T22:04:23.092Z,6.85
2018-12-10T22:06:49.377Z,14.68
2018-12-10T22:09:15.263Z,6.92
2018-12-10T22:11:41.179Z,4.83
2018-12-10T22:14:07.085Z,4.10
2018-12-10T22:16:33.054Z,4.13
2018-12-10T22:18:58.995Z,3.87
2018-12-10T22:21:24.930Z,3.70
2018-12-10T22:23:50.764Z,3.53
2018-12-10T22:26:16.669Z,3.80
2018-12-10T22:28:46.147Z,3.87
2018-12-10T22:31:12.037Z,3.65
2018-12-10T22:33:39.733Z,3.57
2018-12-10T22:36:05.614Z,3.72
2018-12-10T22:38:35.436Z,4.00
2018-12-10T22:41:01.297Z,3.25
2018-12-10T22:43:30.463Z,3.50
2018-12-10T22:45:56.355Z,3.85
2018-12-10T22:48:24.169Z,3.10
2018-12-10T22:50:50.032Z,3.30
2018-12-10T22:53:18.998Z,2.13
2018-12-10T22:55:44.903Z,2.75
2018-12-10T22:58:10.798Z,2.97
2018-12-10T23:00:41.127Z,2.53
2018-12-10T23:03:07.024Z,2.10
2018-12-10T23:05:32.969Z,2.27
2018-12-10T23:07:58.868Z,2.20
2018-12-10T23:10:24.761Z,2.40
2018-12-10T23:12:50.647Z,2.60
2018-12-10T23:15:19.400Z,2.62
2018-12-10T23:17:45.287Z,3.10
2018-12-10T23:20:15.361Z,2.40
2018-12-10T23:22:41.246Z,2.33
2018-12-10T23:25:08.790Z,2.40
2018-12-10T23:27:34.663Z,2.12
2018-12-10T23:30:04.171Z,2.87
2018-12-10T23:32:30.086Z,2.35
2018-12-10T23:34:55.933Z,2.83
2018-12-10T23:37:22.041Z,2.00
2018-12-10T23:39:48.031Z,1.98
2018-12-10T23:42:15.430Z,2.47
2018-12-10T23:44:49.041Z,2.00
2018-12-10T23:47:14.951Z,2.25
2018-12-10T23:49:40.853Z,1.87
2018-12-10T23:52:06.782Z,2.13
2018-12-10T23:54:32.663Z,1.30
2018-12-10T23:56:59.829Z,1.83
2018-12-10T23:59:25.708Z,1.85
